createdAt,value
2023-02-09T00:00:41.818Z,102872.21
2023-02-09T00:01:43.773Z,102865.33
2023-02-09T00:02:46.168Z,102866.55
2023-02-09T00:03:48.760Z,102863.90
2023-02-09T00:04:51.284Z,102863.90
2023-02-09T00:05:53.271Z,102864.34
2023-02-09T00:06:56.293Z,102861.44
2023-02-09T00:07:58.861Z,102863.00
2023-02-09T00:09:00.807Z,102857.89
2023-02-09T00:10:04.809Z,102857.44
2023-02-09T00:11:12.297Z,102858.13
2023-02-09T00:12:14.329Z,102860.80
2023-02-09T00:13:16.795Z,102857.88
2023-02-09T00:14:22.098Z,102857.66
2023-02-09T00:15:24.495Z,102860.51
2023-02-09T00:16:26.622Z,102864.52
2023-02-09T00:17:29.000Z,102860.80
2023-02-09T00:18:32.629Z,102864.16
2023-02-09T00:19:34.739Z,102859.37
2023-02-09T00:20:36.753Z,102862.07
2023-02-09T00:21:39.843Z,102861.20
2023-02-09T00:22:41.865Z,102850.09
2023-02-09T00:23:43.922Z,102848.52
2023-02-09T00:24:45.815Z,102850.44
2023-02-09T00:25:47.687Z,102841.83
2023-02-09T00:26:49.798Z,102838.51
2023-02-09T00:27:51.808Z,102844.39
2023-02-09T00:28:53.992Z,102838.70
2023-02-09T00:29:55.860Z,102836.06
2023-02-09T00:30:59.088Z,102839.85
2023-02-09T00:32:01.421Z,102841.59
2023-02-09T00:33:03.615Z,102838.39
2023-02-09T00:34:07.130Z,102837.17
2023-02-09T00:35:09.028Z,102837.41
2023-02-09T00:36:13.453Z,102832.06
2023-02-09T00:37:15.824Z,102837.83
2023-02-09T00:38:17.723Z,102844.05
2023-02-09T00:39:19.722Z,102842.98
2023-02-09T00:40:21.804Z,102843.06
2023-02-09T00:41:23.711Z,102844.04
2023-02-09T00:42:25.618Z,102839.73
2023-02-09T00:43:27.606Z,102837.59
2023-02-09T00:44:29.586Z,102834.45
2023-02-09T00:45:32.028Z,102831.58
2023-02-09T00:46:34.215Z,102837.24
2023-02-09T00:47:36.208Z,102836.89
2023-02-09T00:48:38.193Z,102838.70
2023-02-09T00:49:40.122Z,102841.59
2023-02-09T00:50:42.285Z,102841.59
2023-02-09T00:51:44.465Z,102834.80
2023-02-09T00:52:46.453Z,102837.92
2023-02-09T00:53:48.351Z,102841.25
2023-02-09T00:54:50.360Z,102837.57
2023-02-09T00:55:52.883Z,102843.34
2023-02-09T00:56:55.067Z,102835.66
2023-02-09T00:57:57.150Z,102834.02
2023-02-09T00:58:59.404Z,102825.08
2023-02-09T01:00:03.028Z,102829.55
2023-02-09T01:01:05.295Z,102821.22
2023-02-09T01:02:07.523Z,102825.08
2023-02-09T01:03:10.316Z,102830.41
2023-02-09T01:04:12.390Z,102824.84
2023-02-09T01:05:14.792Z,102818.38
2023-02-09T01:06:17.029Z,102820.29
2023-02-09T01:07:19.315Z,102824.64
2023-02-09T01:08:21.299Z,102822.84
2023-02-09T01:09:23.666Z,102825.17
2023-02-09T01:10:25.739Z,102820.29
2023-02-09T01:11:27.923Z,102827.31
2023-02-09T01:12:31.133Z,102838.19
2023-02-09T01:13:33.099Z,102838.72
2023-02-09T01:14:37.133Z,102827.75
2023-02-09T01:15:39.972Z,102827.11
2023-02-09T01:16:42.347Z,102828.20
2023-02-09T01:17:44.612Z,102832.84
2023-02-09T01:18:46.480Z,102832.45
2023-02-09T01:19:53.878Z,102825.38
2023-02-09T01:20:55.913Z,102829.30
2023-02-09T01:21:58.344Z,102828.10
2023-02-09T01:23:01.118Z,102820.91
2023-02-09T01:24:03.716Z,102815.91
2023-02-09T01:25:07.846Z,102819.46
2023-02-09T01:26:11.977Z,102820.38
2023-02-09T01:27:14.454Z,102820.58
2023-02-09T01:28:16.434Z,102819.34
2023-02-09T01:29:20.413Z,102821.91
2023-02-09T01:30:22.515Z,102823.70
2023-02-09T01:31:30.897Z,102825.02
2023-02-09T01:32:35.649Z,102815.88
2023-02-09T01:33:37.570Z,102819.06
2023-02-09T01:34:39.720Z,102811.75
2023-02-09T01:35:41.825Z,102823.86
2023-02-09T01:36:45.139Z,102815.43
2023-02-09T01:37:47.048Z,102816.75
2023-02-09T01:38:49.538Z,102817.64
2023-02-09T01:39:51.556Z,102813.76
2023-02-09T01:40:53.639Z,102809.00
2023-02-09T01:41:55.546Z,102809.67
2023-02-09T01:42:57.443Z,102808.09
2023-02-09T01:44:05.909Z,102811.44
2023-02-09T01:45:14.651Z,102807.03
2023-02-09T01:46:17.438Z,102806.27
2023-02-09T01:47:19.625Z,102805.03
2023-02-09T01:49:35.042Z,102803.37
2023-02-09T01:50:40.413Z,102814.81
2023-02-09T01:51:49.067Z,102809.59
2023-02-09T01:52:51.305Z,102817.91
2023-02-09T01:53:54.016Z,102810.97
2023-02-09T01:55:02.653Z,102810.03
2023-02-09T01:56:08.587Z,102807.03
2023-02-09T01:57:14.348Z,102791.45
2023-02-09T01:58:20.105Z,102799.95
2023-02-09T01:59:23.534Z,102799.09
2023-02-09T02:00:26.567Z,102800.88
2023-02-09T02:01:28.812Z,102783.96
2023-02-09T02:02:31.865Z,102783.08
2023-02-09T02:03:34.306Z,102786.86
2023-02-09T02:04:41.426Z,102787.21
2023-02-09T02:05:46.788Z,102789.53
2023-02-09T02:06:50.402Z,102781.52
2023-02-09T02:07:59.378Z,102790.19
2023-02-09T02:09:07.928Z,102786.86
2023-02-09T02:10:11.278Z,102787.51
2023-02-09T02:11:14.254Z,102786.06
2023-02-09T02:12:17.572Z,102789.65
2023-02-09T02:13:20.471Z,102778.38
2023-02-09T02:14:31.607Z,102782.38
2023-02-09T02:15:45.997Z,102781.81
2023-02-09T02:16:51.898Z,102792.15
2023-02-09T02:18:17.751Z,102788.54
2023-02-09T02:19:35.228Z,102793.94
2023-02-09T02:20:44.366Z,102795.59
2023-02-09T02:23:06.669Z,102787.61
2023-02-09T02:24:18.342Z,102788.30
2023-02-09T02:25:41.100Z,102795.09
2023-02-09T02:27:01.528Z,102790.35
2023-02-09T02:28:27.157Z,102784.83
2023-02-09T02:29:58.772Z,102784.60
2023-02-09T02:31:30.794Z,102788.63
2023-02-09T02:32:48.787Z,102791.30
2023-02-09T02:35:11.889Z,102770.52
2023-02-09T02:36:17.900Z,102781.93
2023-02-09T02:37:38.645Z,102774.24
2023-02-09T02:38:47.917Z,102770.98
2023-02-09T02:40:02.724Z,102777.21
2023-02-09T02:41:18.184Z,102778.36
2023-02-09T02:42:29.725Z,102783.03
2023-02-09T02:44:01.822Z,102783.03
2023-02-09T02:45:10.589Z,102787.96
2023-02-09T02:46:35.729Z,102783.50
2023-02-09T02:47:41.073Z,102780.59
2023-02-09T02:50:12.160Z,102773.38
2023-02-09T02:51:39.052Z,102780.17
2023-02-09T02:52:44.755Z,102778.39
2023-02-09T02:53:50.749Z,102776.43
2023-02-09T02:54:56.435Z,102769.97
2023-02-09T02:57:18.627Z,102770.20
2023-02-09T02:58:23.899Z,102766.39
2023-02-09T02:59:35.892Z,102767.19
2023-02-09T03:00:44.756Z,102766.39
2023-02-09T03:01:59.417Z,102768.95
2023-02-09T03:03:08.127Z,102765.19
2023-02-09T03:04:12.780Z,102768.52
2023-02-09T03:05:18.325Z,102767.30
2023-02-09T03:06:20.457Z,102773.53
2023-02-09T03:07:22.502Z,102767.06
2023-02-09T03:08:24.386Z,102762.17
2023-02-09T03:09:26.417Z,102760.19
2023-02-09T03:10:31.969Z,102760.95
2023-02-09T03:11:37.416Z,102767.30
2023-02-09T03:12:43.204Z,102760.17
2023-02-09T03:14:10.900Z,102750.38
2023-02-09T03:15:19.705Z,102750.59
2023-02-09T03:16:43.667Z,102758.94
2023-02-09T03:19:45.548Z,102748.09
2023-02-09T03:21:00.008Z,102748.56
2023-02-09T03:22:27.129Z,102747.09
2023-02-09T03:23:44.982Z,102738.97
2023-02-09T03:25:09.041Z,102742.52
2023-02-09T03:26:18.251Z,102738.92
2023-02-09T03:27:26.670Z,102750.86
2023-02-09T03:28:32.439Z,102740.28
2023-02-09T03:29:37.388Z,102742.63
2023-02-09T03:30:41.488Z,102742.30
2023-02-09T03:31:45.327Z,102736.52
2023-02-09T03:32:47.505Z,102740.40
2023-02-09T03:33:50.094Z,102735.92
2023-02-09T03:34:53.604Z,102740.17
2023-02-09T03:35:58.768Z,102739.63
2023-02-09T03:37:01.843Z,102743.61
2023-02-09T03:38:03.845Z,102736.95
2023-02-09T03:39:05.918Z,102743.18
2023-02-09T03:40:09.528Z,102735.97
2023-02-09T03:41:11.705Z,102743.98
2023-02-09T03:42:13.984Z,102751.20
2023-02-09T03:43:16.219Z,102752.11
2023-02-09T03:44:18.243Z,102746.55
2023-02-09T03:45:20.108Z,102747.86
2023-02-09T03:46:22.096Z,102751.45
2023-02-09T03:47:24.061Z,102742.19
2023-02-09T03:48:26.157Z,102748.09
2023-02-09T03:49:34.403Z,102739.84
2023-02-09T03:50:37.141Z,102743.40
2023-02-09T03:51:39.055Z,102737.28
2023-02-09T03:52:41.060Z,102739.63
2023-02-09T03:53:43.035Z,102747.42
2023-02-09T03:54:45.069Z,102745.41
2023-02-09T03:55:47.319Z,102744.20
2023-02-09T03:56:49.526Z,102747.31
2023-02-09T03:57:52.231Z,102746.11
2023-02-09T03:58:54.124Z,102746.11
2023-02-09T03:59:56.160Z,102738.75
2023-02-09T04:01:10.032Z,102745.41
2023-02-09T04:02:12.504Z,102746.55
2023-02-09T04:03:14.524Z,102747.34
2023-02-09T04:04:16.678Z,102741.42
2023-02-09T04:05:18.585Z,102743.22
2023-02-09T04:06:20.894Z,102719.42
2023-02-09T04:07:22.762Z,102743.80
2023-02-09T04:08:25.801Z,102747.23
2023-02-09T04:09:28.096Z,102748.23
2023-02-09T04:10:30.167Z,102736.55
2023-02-09T04:11:32.147Z,102741.89
2023-02-09T04:12:34.538Z,102752.91
2023-02-09T04:13:36.467Z,102740.92
2023-02-09T04:14:39.433Z,102740.78
2023-02-09T04:15:41.415Z,102743.47
2023-02-09T04:16:43.992Z,102743.77
2023-02-09T04:17:46.394Z,102740.32
2023-02-09T04:18:48.280Z,102741.20
2023-02-09T04:19:50.346Z,102736.99
2023-02-09T04:20:52.637Z,102731.06
2023-02-09T04:21:55.708Z,102732.75
2023-02-09T04:22:57.614Z,102732.20
2023-02-09T04:23:59.507Z,102727.95
2023-02-09T04:25:02.271Z,102731.83
2023-02-09T04:26:05.623Z,102724.63
2023-02-09T04:27:07.639Z,102729.86
2023-02-09T04:28:09.963Z,102724.73
2023-02-09T04:29:12.027Z,102728.28
2023-02-09T04:30:14.684Z,102727.30
2023-02-09T04:31:17.098Z,102725.39
2023-02-09T04:32:19.937Z,102718.91
2023-02-09T04:33:23.811Z,102719.50
2023-02-09T04:34:26.068Z,102715.91
2023-02-09T04:35:28.088Z,102718.47
2023-02-09T04:36:30.383Z,102716.61
2023-02-09T04:37:32.280Z,102711.59
2023-02-09T04:38:34.938Z,102713.46
2023-02-09T04:39:38.102Z,102720.93
2023-02-09T04:40:40.129Z,102713.24
2023-02-09T04:41:42.114Z,102719.13
2023-02-09T04:42:45.633Z,102712.80
2023-02-09T04:43:49.741Z,102716.17
2023-02-09T04:44:51.693Z,102716.39
2023-02-09T04:45:54.055Z,102729.64
2023-02-09T04:46:56.167Z,102720.70
2023-02-09T04:47:59.995Z,102724.73
2023-02-09T04:49:04.250Z,102716.30
2023-02-09T04:50:07.955Z,102723.08
2023-02-09T04:51:11.432Z,102716.39
2023-02-09T04:52:13.553Z,102723.08
2023-02-09T04:53:16.022Z,102717.41
2023-02-09T04:54:19.053Z,102720.96
2023-02-09T04:55:21.044Z,102720.30
2023-02-09T04:56:23.214Z,102717.41
2023-02-09T04:57:25.392Z,102705.16
2023-02-09T04:58:28.141Z,102711.27
2023-02-09T04:59:30.162Z,102710.61
2023-02-09T05:00:34.147Z,102707.06
2023-02-09T05:01:38.108Z,102715.40
2023-02-09T05:02:40.087Z,102711.37
2023-02-09T05:03:42.005Z,102707.49
2023-02-09T05:04:43.952Z,102711.96
2023-02-09T05:05:46.058Z,102719.06
2023-02-09T05:06:48.152Z,102711.37
2023-02-09T05:07:50.401Z,102716.06
2023-02-09T05:08:52.443Z,102714.81
2023-02-09T05:09:54.364Z,102718.04
2023-02-09T05:10:56.894Z,102710.35
2023-02-09T05:11:58.790Z,102706.80
2023-02-09T05:13:00.860Z,102715.48
2023-02-09T05:14:02.936Z,102713.83
2023-02-09T05:15:05.605Z,102712.03
2023-02-09T05:16:11.401Z,102704.94
2023-02-09T05:17:13.554Z,102706.95
2023-02-09T05:18:16.166Z,102698.68
2023-02-09T05:19:18.455Z,102701.35
2023-02-09T05:20:20.989Z,102697.47
2023-02-09T05:21:23.457Z,102697.47
2023-02-09T05:22:28.653Z,102689.12
2023-02-09T05:23:31.666Z,102694.91
2023-02-09T05:24:33.728Z,102689.23
2023-02-09T05:25:36.301Z,102696.01
2023-02-09T05:26:38.382Z,102695.35
2023-02-09T05:27:40.770Z,102694.58
2023-02-09T05:28:42.830Z,102694.25
2023-02-09T05:29:45.751Z,102697.14
2023-02-09T05:30:49.125Z,102694.87
2023-02-09T05:31:51.372Z,102703.36
2023-02-09T05:32:54.248Z,102697.55
2023-02-09T05:33:56.123Z,102694.43
2023-02-09T05:34:59.280Z,102696.66
2023-02-09T05:36:01.401Z,102694.76
2023-02-09T05:37:03.388Z,102693.88
2023-02-09T05:38:05.343Z,102688.88
2023-02-09T05:39:07.214Z,102693.12
2023-02-09T05:40:10.839Z,102688.44
2023-02-09T05:41:14.049Z,102691.98
2023-02-09T05:42:16.632Z,102689.74
2023-02-09T05:43:18.634Z,102688.80
2023-02-09T05:44:21.087Z,102690.88
2023-02-09T05:45:23.086Z,102690.08
2023-02-09T05:46:25.355Z,102696.70
2023-02-09T05:47:27.637Z,102690.45
2023-02-09T05:48:29.806Z,102694.43
2023-02-09T05:49:31.809Z,102694.06
2023-02-09T05:50:34.375Z,102702.40
2023-02-09T05:51:36.360Z,102695.91
2023-02-09T05:52:38.276Z,102698.58
2023-02-09T05:53:40.318Z,102702.27
2023-02-09T05:54:43.076Z,102704.35
2023-02-09T05:55:46.805Z,102698.56
2023-02-09T05:56:49.107Z,102698.56
2023-02-09T05:57:51.062Z,102700.03
2023-02-09T05:58:52.930Z,102701.95
2023-02-09T05:59:55.556Z,102701.04
2023-02-09T06:00:57.667Z,102703.58
2023-02-09T06:02:00.820Z,102699.28
2023-02-09T06:03:03.886Z,102700.87
2023-02-09T06:04:06.911Z,102699.77
2023-02-09T06:05:09.001Z,102700.91
2023-02-09T06:06:11.146Z,102705.11
2023-02-09T06:07:13.006Z,102694.28
2023-02-09T06:08:14.891Z,102700.98
2023-02-09T06:09:16.956Z,102697.27
2023-02-09T06:10:19.441Z,102698.14
2023-02-09T06:11:21.356Z,102700.53
2023-02-09T06:12:24.428Z,102706.27
2023-02-09T06:13:26.304Z,102702.13
2023-02-09T06:14:29.144Z,102702.55
2023-02-09T06:15:31.175Z,102703.74
2023-02-09T06:16:33.234Z,102697.87
2023-02-09T06:17:36.230Z,102700.08
2023-02-09T06:18:38.241Z,102702.15
2023-02-09T06:19:40.180Z,102708.30
2023-02-09T06:20:42.273Z,102706.25
2023-02-09T06:21:44.978Z,102710.98
2023-02-09T06:22:47.110Z,102708.00
2023-02-09T06:23:49.199Z,102708.21
2023-02-09T06:24:51.461Z,102708.52
2023-02-09T06:25:53.430Z,102711.80
2023-02-09T06:26:55.643Z,102707.85
2023-02-09T06:27:57.581Z,102695.80
2023-02-09T06:28:59.613Z,102703.12
2023-02-09T06:30:01.859Z,102707.65
2023-02-09T06:31:04.651Z,102712.98
2023-02-09T06:32:07.090Z,102708.02
2023-02-09T06:33:09.127Z,102706.42
2023-02-09T06:34:11.006Z,102711.76
2023-02-09T06:35:12.897Z,102704.16
2023-02-09T06:36:15.069Z,102708.63
2023-02-09T06:37:17.940Z,102717.09
2023-02-09T06:38:21.016Z,102710.69
2023-02-09T06:39:22.893Z,102712.58
2023-02-09T06:40:27.275Z,102712.78
2023-02-09T06:41:29.228Z,102707.27
2023-02-09T06:42:31.218Z,102707.66
2023-02-09T06:43:34.914Z,102705.68
2023-02-09T06:44:36.993Z,102709.34
2023-02-09T06:45:39.503Z,102703.82
2023-02-09T06:46:41.634Z,102712.39
2023-02-09T06:47:45.108Z,102714.77
2023-02-09T06:48:47.450Z,102714.58
2023-02-09T06:49:50.014Z,102712.98
2023-02-09T06:50:52.404Z,102706.25
2023-02-09T06:51:54.832Z,102703.09
2023-02-09T06:52:58.719Z,102704.27
2023-02-09T06:54:00.835Z,102711.20
2023-02-09T06:55:03.445Z,102703.84
2023-02-09T06:56:07.102Z,102702.04
2023-02-09T06:57:09.014Z,102703.45
2023-02-09T06:58:11.485Z,102706.11
2023-02-09T06:59:15.019Z,102702.58
2023-02-09T07:00:18.620Z,102698.88
2023-02-09T07:01:21.819Z,102694.14
2023-02-09T07:02:23.818Z,102694.84
2023-02-09T07:03:26.557Z,102694.16
2023-02-09T07:04:28.482Z,102689.65
2023-02-09T07:05:30.810Z,102697.91
2023-02-09T07:06:33.010Z,102699.33
2023-02-09T07:07:35.252Z,102701.80
2023-02-09T07:08:39.206Z,102696.39
2023-02-09T07:09:41.412Z,102706.22
2023-02-09T07:10:43.880Z,102705.13
2023-02-09T07:11:46.042Z,102689.40
2023-02-09T07:12:48.216Z,102691.16
2023-02-09T07:13:51.157Z,102698.83
2023-02-09T07:14:53.083Z,102698.81
2023-02-09T07:15:56.469Z,102701.97
2023-02-09T07:16:59.091Z,102697.12
2023-02-09T07:18:01.111Z,102697.69
2023-02-09T07:19:04.311Z,102695.12
2023-02-09T07:20:08.617Z,102695.28
2023-02-09T07:21:13.348Z,102688.50
2023-02-09T07:22:15.831Z,102695.78
2023-02-09T07:23:18.636Z,102695.78
2023-02-09T07:24:21.347Z,102698.84
2023-02-09T07:25:23.240Z,102698.77
2023-02-09T07:26:25.472Z,102689.62
2023-02-09T07:27:27.458Z,102694.80
2023-02-09T07:28:29.569Z,102699.90
2023-02-09T07:29:32.728Z,102699.06
2023-02-09T07:30:34.888Z,102700.30
2023-02-09T07:31:37.088Z,102701.25
2023-02-09T07:32:40.689Z,102702.37
2023-02-09T07:33:43.222Z,102699.16
2023-02-09T07:34:45.365Z,102694.31
2023-02-09T07:35:48.293Z,102693.68
2023-02-09T07:36:50.645Z,102694.16
2023-02-09T07:37:52.657Z,102691.89
2023-02-09T07:38:55.660Z,102692.09
2023-02-09T07:39:58.722Z,102688.55
2023-02-09T07:41:03.676Z,102689.38
2023-02-09T07:42:06.054Z,102690.34
2023-02-09T07:43:08.057Z,102679.81
2023-02-09T07:44:09.965Z,102687.28
2023-02-09T07:45:11.970Z,102680.80
2023-02-09T07:46:18.005Z,102681.27
2023-02-09T07:47:20.174Z,102682.90
2023-02-09T07:48:22.251Z,102681.75
2023-02-09T07:49:24.226Z,102682.73
2023-02-09T07:50:26.679Z,102684.00
2023-02-09T07:51:29.673Z,102683.13
2023-02-09T07:52:31.750Z,102683.84
2023-02-09T07:53:33.758Z,102677.52
2023-02-09T07:54:35.674Z,102686.06
2023-02-09T07:55:39.843Z,102681.58
2023-02-09T07:56:41.902Z,102679.56
2023-02-09T07:57:43.778Z,102685.19
2023-02-09T07:58:45.670Z,102678.54
2023-02-09T07:59:47.806Z,102682.56
2023-02-09T08:00:50.854Z,102677.39
2023-02-09T08:01:52.934Z,102673.52
2023-02-09T08:02:54.992Z,102672.14
2023-02-09T08:03:57.738Z,102679.45
2023-02-09T08:05:00.460Z,102672.88
2023-02-09T08:06:25.984Z,102673.17
2023-02-09T08:07:30.508Z,102664.46
2023-02-09T08:08:32.442Z,102671.02
2023-02-09T08:09:35.567Z,102666.11
2023-02-09T08:10:40.959Z,102673.14
2023-02-09T08:11:49.245Z,102668.29
2023-02-09T08:12:53.749Z,102669.82
2023-02-09T08:14:01.111Z,102673.25
2023-02-09T08:15:05.061Z,102673.97
2023-02-09T08:16:11.544Z,102669.55
2023-02-09T08:17:17.264Z,102679.58
2023-02-09T08:18:22.965Z,102673.00
2023-02-09T08:19:25.193Z,102664.04
2023-02-09T08:20:31.038Z,102663.45
2023-02-09T08:21:36.748Z,102666.29
2023-02-09T08:22:41.928Z,102659.66
2023-02-09T08:23:47.339Z,102662.09
2023-02-09T08:24:49.889Z,102661.41
2023-02-09T08:25:53.055Z,102660.94
2023-02-09T08:26:55.248Z,102655.00
2023-02-09T08:27:58.801Z,102652.03
2023-02-09T08:29:01.814Z,102651.76
2023-02-09T08:30:05.157Z,102651.76
2023-02-09T08:31:07.165Z,102654.20
2023-02-09T08:32:09.222Z,102654.77
2023-02-09T08:33:11.394Z,102657.70
2023-02-09T08:34:13.501Z,102657.80
2023-02-09T08:35:16.052Z,102651.16
2023-02-09T08:36:19.903Z,102653.95
2023-02-09T08:37:22.211Z,102649.00
2023-02-09T08:38:25.346Z,102651.46
2023-02-09T08:39:27.349Z,102656.17
2023-02-09T08:40:31.896Z,102652.94
2023-02-09T08:41:34.255Z,102649.81
2023-02-09T08:42:36.222Z,102653.78
2023-02-09T08:43:39.066Z,102655.94
2023-02-09T08:44:40.947Z,102652.47
2023-02-09T08:45:43.172Z,102655.52
2023-02-09T08:46:45.667Z,102649.63
2023-02-09T08:47:47.667Z,102651.96
2023-02-09T08:48:51.560Z,102654.33
2023-02-09T08:49:53.617Z,102653.48
2023-02-09T08:50:55.600Z,102655.40
2023-02-09T08:51:57.514Z,102653.36
2023-02-09T08:52:59.678Z,102658.18
2023-02-09T08:54:02.880Z,102659.19
2023-02-09T08:55:06.292Z,102646.36
2023-02-09T08:56:10.228Z,102651.48
2023-02-09T08:57:12.417Z,102649.11
2023-02-09T08:58:15.393Z,102646.69
2023-02-09T08:59:20.006Z,102643.77
2023-02-09T09:00:21.671Z,102648.30
2023-02-09T09:01:23.616Z,102645.91
2023-02-09T09:02:25.770Z,102641.11
2023-02-09T09:03:30.029Z,102646.68
2023-02-09T09:04:32.374Z,102642.94
2023-02-09T09:05:35.085Z,102643.06
2023-02-09T09:06:38.125Z,102646.65
2023-02-09T09:07:40.362Z,102646.55
2023-02-09T09:08:42.268Z,102639.62
2023-02-09T09:09:44.941Z,102639.18
2023-02-09T09:10:47.075Z,102639.39
2023-02-09T09:11:48.969Z,102629.02
2023-02-09T09:12:51.767Z,102635.50
2023-02-09T09:13:53.672Z,102627.25
2023-02-09T09:14:55.730Z,102629.50
2023-02-09T09:15:58.625Z,102620.97
2023-02-09T09:17:00.801Z,102621.59
2023-02-09T09:18:03.244Z,102618.05
2023-02-09T09:19:05.357Z,102618.05
2023-02-09T09:20:10.112Z,102610.45
2023-02-09T09:21:13.863Z,102610.45
2023-02-09T09:22:15.879Z,102608.03
2023-02-09T09:23:18.688Z,102607.03
2023-02-09T09:24:21.792Z,102594.00
2023-02-09T09:25:23.784Z,102600.19
2023-02-09T09:26:25.867Z,102594.53
2023-02-09T09:27:27.855Z,102597.23
2023-02-09T09:28:30.568Z,102594.82
2023-02-09T09:29:33.915Z,102589.75
2023-02-09T09:30:37.708Z,102585.83
2023-02-09T09:31:39.786Z,102579.91
2023-02-09T09:32:41.944Z,102587.50
2023-02-09T09:33:45.694Z,102584.28
2023-02-09T09:34:47.684Z,102582.95
2023-02-09T09:35:49.681Z,102576.25
2023-02-09T09:36:51.996Z,102575.33
2023-02-09T09:37:55.062Z,102571.69
2023-02-09T09:38:58.104Z,102568.41
2023-02-09T09:40:00.150Z,102572.45
2023-02-09T09:41:04.282Z,102565.52
2023-02-09T09:42:09.089Z,102565.52
2023-02-09T09:43:38.177Z,102565.63
2023-02-09T09:44:47.147Z,102565.98
2023-02-09T09:45:49.663Z,102564.77
2023-02-09T09:46:53.675Z,102569.75
2023-02-09T09:47:56.377Z,102565.34
2023-02-09T09:48:59.378Z,102563.03
2023-02-09T09:50:03.401Z,102560.02
2023-02-09T09:51:21.209Z,102555.97
2023-02-09T09:52:29.979Z,102555.86
2023-02-09T09:53:35.490Z,102558.67
2023-02-09T09:54:37.692Z,102550.06
2023-02-09T09:55:40.391Z,102547.75
2023-02-09T09:56:42.896Z,102549.74
2023-02-09T09:57:45.690Z,102550.88
2023-02-09T09:58:49.076Z,102549.53
2023-02-09T09:59:52.599Z,102547.41
2023-02-09T10:00:55.938Z,102547.75
2023-02-09T10:02:01.664Z,102547.70
2023-02-09T10:04:22.442Z,102543.19
2023-02-09T10:05:27.737Z,102543.30
2023-02-09T10:06:31.282Z,102543.80
2023-02-09T10:07:34.552Z,102542.16
2023-02-09T10:08:45.894Z,102540.33
2023-02-09T10:09:54.341Z,102533.87
2023-02-09T10:11:00.383Z,102535.90
2023-02-09T10:12:06.122Z,102535.28
2023-02-09T10:13:17.972Z,102524.14
2023-02-09T10:14:21.410Z,102526.84
2023-02-09T10:15:30.705Z,102528.16
2023-02-09T10:16:35.678Z,102520.52
2023-02-09T10:17:38.006Z,102517.77
2023-02-09T10:18:39.916Z,102521.42
2023-02-09T10:19:41.785Z,102523.12
2023-02-09T10:20:50.508Z,102524.02
2023-02-09T10:21:54.054Z,102520.05
2023-02-09T10:22:58.873Z,102511.70
2023-02-09T10:25:21.655Z,102510.31
2023-02-09T10:26:27.345Z,102509.34
2023-02-09T10:27:30.371Z,102502.57
2023-02-09T10:28:44.049Z,102502.02
2023-02-09T10:29:46.516Z,102504.73
2023-02-09T10:30:52.005Z,102499.62
2023-02-09T10:32:12.583Z,102493.75
2023-02-09T10:33:15.236Z,102496.45
2023-02-09T10:34:20.611Z,102494.81
2023-02-09T10:35:26.428Z,102488.03
2023-02-09T10:36:32.144Z,102494.34
2023-02-09T10:37:39.491Z,102484.94
2023-02-09T10:38:43.879Z,102473.69
2023-02-09T10:39:50.081Z,102482.50
2023-02-09T10:40:52.400Z,102479.16
2023-02-09T10:41:56.307Z,102489.47
2023-02-09T10:43:01.843Z,102480.08
2023-02-09T10:44:20.224Z,102481.03
2023-02-09T10:45:28.853Z,102474.33
2023-02-09T10:46:32.739Z,102475.42
2023-02-09T10:47:36.097Z,102470.87
2023-02-09T10:48:46.710Z,102473.78
2023-02-09T10:51:17.589Z,102467.11
2023-02-09T10:52:24.704Z,102467.89
2023-02-09T10:53:39.044Z,102470.84
2023-02-09T10:54:53.270Z,102461.25
2023-02-09T10:56:04.753Z,102470.89
2023-02-09T10:57:25.656Z,102464.69
2023-02-09T10:58:30.269Z,102466.98
2023-02-09T10:59:33.861Z,102467.33
2023-02-09T11:00:48.305Z,102459.39
2023-02-09T11:02:01.243Z,102462.78
2023-02-09T11:03:06.923Z,102456.39
2023-02-09T11:04:23.667Z,102454.70
2023-02-09T11:05:29.195Z,102450.50
2023-02-09T11:07:55.923Z,102454.45
2023-02-09T11:09:05.289Z,102449.72
2023-02-09T11:10:12.531Z,102445.64
2023-02-09T11:11:36.809Z,102441.78
2023-02-09T11:13:48.540Z,102446.77
2023-02-09T11:14:50.552Z,102438.75
2023-02-09T11:16:12.994Z,102439.53
2023-02-09T11:17:36.010Z,102442.09
2023-02-09T11:18:40.981Z,102442.00
2023-02-09T11:19:46.657Z,102441.05
2023-02-09T11:20:53.068Z,102433.45
2023-02-09T11:22:11.070Z,102433.45
2023-02-09T11:23:23.648Z,102430.06
2023-02-09T11:24:41.515Z,102433.63
2023-02-09T11:25:55.940Z,102426.73
2023-02-09T11:27:23.687Z,102427.51
2023-02-09T11:29:04.835Z,102426.81
2023-02-09T11:30:11.004Z,102426.12
2023-02-09T11:31:40.482Z,102421.77
2023-02-09T11:33:10.770Z,102423.67
2023-02-09T11:34:34.846Z,102424.17
2023-02-09T11:35:43.683Z,102415.53
2023-02-09T11:36:52.456Z,102419.75
2023-02-09T11:38:04.128Z,102407.80
2023-02-09T11:39:12.874Z,102409.75
2023-02-09T11:40:25.700Z,102416.02
2023-02-09T11:41:34.418Z,102407.34
2023-02-09T11:42:40.129Z,102399.95
2023-02-09T11:43:45.768Z,102409.42
2023-02-09T11:45:00.236Z,102403.34
2023-02-09T11:46:06.080Z,102403.34
2023-02-09T11:47:12.098Z,102400.87
2023-02-09T11:48:17.758Z,102398.06
2023-02-09T11:49:22.970Z,102406.78
2023-02-09T11:50:44.199Z,102404.17
2023-02-09T11:51:48.628Z,102404.26
2023-02-09T11:52:57.492Z,102399.26
2023-02-09T11:54:15.188Z,102397.48
2023-02-09T11:55:30.063Z,102395.74
2023-02-09T11:56:35.981Z,102393.02
2023-02-09T11:57:44.745Z,102387.02
2023-02-09T11:58:55.995Z,102387.19
2023-02-09T12:00:00.502Z,102382.02
2023-02-09T12:01:21.911Z,102382.73
2023-02-09T12:02:28.963Z,102384.55
2023-02-09T12:03:30.920Z,102381.98
2023-02-09T12:04:45.661Z,102385.45
2023-02-09T12:05:48.485Z,102379.37
2023-02-09T12:06:57.395Z,102368.06
2023-02-09T12:08:20.174Z,102368.06
2023-02-09T12:09:31.784Z,102373.22
2023-02-09T12:10:49.841Z,102376.78
2023-02-09T12:12:14.829Z,102372.55
2023-02-09T12:13:41.901Z,102378.59
2023-02-09T12:15:05.649Z,102370.08
2023-02-09T12:16:11.834Z,102377.88
2023-02-09T12:17:20.898Z,102378.83
2023-02-09T12:18:27.841Z,102378.75
2023-02-09T12:19:40.604Z,102375.23
2023-02-09T12:20:52.392Z,102375.27
2023-02-09T12:21:54.691Z,102378.67
2023-02-09T12:23:06.514Z,102382.11
2023-02-09T12:24:31.880Z,102380.56
2023-02-09T12:25:54.678Z,102383.09
2023-02-09T12:26:57.295Z,102380.64
2023-02-09T12:28:09.231Z,102378.91
2023-02-09T12:29:36.011Z,102374.41
2023-02-09T12:30:48.305Z,102370.11
2023-02-09T12:32:06.693Z,102369.24
2023-02-09T12:33:24.577Z,102371.84
2023-02-09T12:34:42.194Z,102368.48
2023-02-09T12:35:59.803Z,102373.70
2023-02-09T12:37:14.867Z,102361.59
2023-02-09T12:38:18.741Z,102364.19
2023-02-09T12:39:24.598Z,102364.91